Flight Track Log - Related Links

Times and Time Zones

All times are in EDT time to prevent confusion due to time zone crossing. See the UPS2506 flight status page for this flight to view local times or setup timezone preferences in your user account.

Time Position Orientation Groundspeed Altitude Reporting Facility
EDT Latitude Longitude Course Direction KTS MPH feet Rate Location/Type
Tue 04:10:30 PM 41.5539 -93.6683 271° West 171 197 1,600  Level Minneapolis Center
Tue 04:11:22 PM 41.5544 -93.7275 271° West 192 221 3,400 2,526 Climbing Minneapolis Center
Tue 04:12:24 PM 41.5369 -93.8258 257° West 249 287 6,400 3,000 Climbing Minneapolis Center
Tue 04:13:26 PM 41.5192 -93.9239 256° West 268 308 9,600 2,468 Climbing Minneapolis Center
Tue 04:14:28 PM 41.5050 -94.0150 258° West 287 330 11,500 2,032 Climbing Minneapolis Center
Tue 04:15:30 PM 41.5100 -94.1739 272° West 354 407 13,800 2,390 Climbing Minneapolis Center
Tue 04:20:42 PM 41.5700 -94.9720 272° West 412 474 26,400 2,160 Climbing FlightAware ADS-B
Tue 04:21:20 PM 41.5750 -95.0540 275° West 412 474 26,400 1,446 Level FlightAware ADS-B
Tue 04:22:34 PM 41.5890 -95.2510 275° West 426 490 29,100 1,436 Climbing FlightAware ADS-B
Tue 04:23:17 PM 41.5960 -95.3510 275° West 426 490 29,200 1,200 Climbing FlightAware ADS-B
Tue 04:23:54 PM 41.6040 -95.4670 275° West 441 507 30,700 2,049 Climbing FlightAware ADS-B
Tue 04:24:39 PM 41.6110 -95.5770 275° West 424 488 32,000 963 Climbing FlightAware ADS-B
Tue 04:25:15 PM 41.6180 -95.6790 275° West 425 489 32,000  Level FlightAware ADS-B
Tue 04:25:49 PM 41.6240 -95.7650 275° West 426 490 32,000  Level FlightAware ADS-B
Tue 04:26:26 PM 41.6300 -95.8710 274° West 429 494 32,000  Level FlightAware ADS-B
Tue 04:26:56 PM 41.6350 -95.9500 275° West 430 495 32,000  Level FlightAware ADS-B
Tue 04:27:34 PM 41.6420 -96.0510 275° West 433 498 32,000  Level FlightAware ADS-B
Tue 04:28:08 PM 41.6470 -96.1390 274° West 436 502 32,000  Level FlightAware ADS-B
Tue 04:28:40 PM 41.6520 -96.2280 274° West 436 502 32,000  Level FlightAware ADS-B
Tue 04:29:20 PM 41.6590 -96.3350 275° West 436 502 32,000  Level FlightAware ADS-B
Tue 04:29:56 PM 41.6640 -96.4320 274° West 437 503 32,000  Level FlightAware ADS-B
Tue 04:30:29 PM 41.6690 -96.5210 274° West 439 505 32,000  Level FlightAware ADS-B
Tue 04:31:05 PM 41.6750 -96.6160 275° West 439 505 32,000  Level FlightAware ADS-B
Tue 04:31:40 PM 41.6810 -96.7140 275° West 441 507 32,000  Level FlightAware ADS-B
Tue 04:32:17 PM 41.6860 -96.8140 274° West 441 507 32,000  Level FlightAware ADS-B
Tue 04:32:48 PM 41.6910 -96.8990 275° West 445 512 32,000  Level FlightAware ADS-B
Tue 04:33:22 PM 41.6960 -96.9900 274° West 445 512 32,000  Level FlightAware ADS-B
Tue 04:34:19 PM 41.7040 -97.1370 274° West 443 510 32,000  Level FlightAware ADS-B
Tue 04:34:58 PM 41.7100 -97.2550 274° West 444 511 32,000  Level FlightAware ADS-B
Tue 04:35:30 PM 41.7140 -97.3400 274° West 446 513 32,000  Level FlightAware ADS-B
Tue 04:36:04 PM 41.7190 -97.4360 274° West 445 512 32,000  Level FlightAware ADS-B
Tue 04:36:43 PM 41.7240 -97.5430 274° West 444 511 32,000  Level FlightAware ADS-B
Tue 04:37:19 PM 41.7280 -97.6300 274° West 445 512 32,000  Level FlightAware ADS-B
Tue 04:37:58 PM 41.7340 -97.7480 274° West 449 517 32,000  Level FlightAware ADS-B
Tue 04:38:39 PM 41.7390 -97.8590 273° West 449 517 32,000  Level FlightAware ADS-B
Tue 04:39:30 PM 41.7450 -97.9920 274° West 449 517 32,000  Level FlightAware ADS-B
Tue 04:40:06 PM 41.7480 -98.0770 273° West 449 517 32,000  Level FlightAware ADS-B
Tue 04:40:42 PM 41.7510 -98.1620 273° West 449 517 32,000  Level FlightAware ADS-B
Tue 04:41:19 PM 41.7550 -98.2500 274° West 449 517 32,000  Level FlightAware ADS-B
Tue 04:41:55 PM 41.7580 -98.3350 273° West 449 517 32,000  Level FlightAware ADS-B
Tue 04:42:31 PM 41.7610 -98.4200 273° West 449 517 32,000  Level FlightAware ADS-B
Tue 04:43:07 PM 41.7650 -98.5050 274° West 449 517 32,000  Level FlightAware ADS-B
Tue 04:43:43 PM 41.7680 -98.5900 273° West 449 517 32,000  Level FlightAware ADS-B
Tue 04:44:20 PM 41.7710 -98.6780 273° West 449 517 32,000  Level FlightAware ADS-B
Tue 04:44:57 PM 41.7750 -98.7650 274° West 449 517 32,000  Level FlightAware ADS-B
Tue 04:45:33 PM 41.7780 -98.8500 273° West 449 517 32,000  Level FlightAware ADS-B
Tue 04:46:09 PM 41.7810 -98.9350 273° West 449 517 32,000  Level FlightAware ADS-B
Tue 04:46:45 PM 41.7850 -99.0200 274° West 449 517 32,000  Level FlightAware ADS-B
Tue 04:47:21 PM 41.7880 -99.1060 273° West 449 517 32,000  Level FlightAware ADS-B
Tue 04:47:57 PM 41.7910 -99.1910 273° West 449 517 32,000  Level FlightAware ADS-B
Tue 04:48:33 PM 41.7950 -99.2760 274° West 449 517 32,000  Level FlightAware ADS-B
Tue 04:49:15 PM 41.8200 -99.5781 274° West 437 503 32,000  Level Denver Center
Tue 04:50:17 PM 41.8653 -99.7428 290° West 442 509 32,000  Level Denver Center
Tue 04:51:19 PM 41.9097 -99.9192 289° West 448 516 32,000  Level Denver Center
Tue 04:52:21 PM 41.9444 -100.0703 287° West 447 514 32,000  Level Denver Center
Tue 04:53:23 PM 41.9856 -100.2469 287° West 446 513 32,000  Level Denver Center
Tue 04:54:25 PM 42.0200 -100.4003 287° West 448 516 32,000  Level Denver Center
Tue 04:55:27 PM 42.0617 -100.5797 287° West 451 519 32,000  Level Denver Center
Tue 04:56:29 PM 42.0978 -100.7336 288° West 452 520 32,000  Level Denver Center
Tue 04:57:31 PM 42.1403 -100.9111 288° West 449 517 32,000  Level Denver Center
Tue 04:58:33 PM 42.1761 -101.0636 288° West 448 516 32,000  Level Denver Center
Tue 04:59:35 PM 42.2050 -101.2486 282° West 452 520 32,000  Level Denver Center
Tue 05:00:36 PM 42.2200 -101.4081 277° West 450 518 32,000  Level Denver Center
Tue 05:01:38 PM 42.2161 -101.5678 268° West 446 513 32,000  Level Denver Center
Tue 05:07:16 PM 42.1713 -102.5450 268° West 449 517 32,000  Level FlightAware ADS-B
Tue 05:07:46 PM 42.1650 -102.6280 264° West 447 514 32,000  Level FlightAware ADS-B
Tue 05:08:18 PM 42.1572 -102.7170 263° West 447 514 32,000  Level FlightAware ADS-B
Tue 05:08:51 PM 42.1494 -102.8080 263° West 448 516 32,000  Level FlightAware ADS-B
Tue 05:09:21 PM 42.1424 -102.8910 264° West 449 517 32,000  Level FlightAware ADS-B
Tue 05:09:51 PM 42.1359 -102.9740 264° West 449 517 32,000  Level FlightAware ADS-B
Tue 05:10:21 PM 42.1298 -103.0580 264° West 451 519 32,000  Level FlightAware ADS-B
Tue 05:11:03 PM 42.1213 -103.1750 264° West 451 519 32,000  Level FlightAware ADS-B
Tue 05:11:36 PM 42.1135 -103.2670 264° West 450 518 32,000  Level FlightAware ADS-B
Tue 05:12:06 PM 42.1031 -103.3500 260° West 447 514 32,000  Level FlightAware ADS-B
Tue 05:12:37 PM 42.0911 -103.4340 259° West 446 513 32,000  Level FlightAware ADS-B
Tue 05:13:11 PM 42.0728 -103.5250 255° West 446 513 32,000  Level FlightAware ADS-B
Tue 05:13:41 PM 42.0595 -103.6060 258° West 446 513 32,000  Level FlightAware ADS-B
Tue 05:14:11 PM 42.0461 -103.6880 258° West 447 514 32,000  Level FlightAware ADS-B
Tue 05:14:42 PM 42.0324 -103.7710 257° West 444 511 32,000  Level FlightAware ADS-B
Tue 05:15:12 PM 42.0184 -103.8520 257° West 442 509 32,000  Level FlightAware ADS-B
Tue 05:15:42 PM 42.0045 -103.9350 257° West 440 506 32,000  Level FlightAware ADS-B
Tue 05:16:13 PM 41.9908 -104.0140 257° West 437 503 32,000  Level FlightAware ADS-B
Tue 05:16:44 PM 41.9772 -104.0970 258° West 437 503 32,000  Level FlightAware ADS-B
Tue 05:17:15 PM 41.9635 -104.1810 258° West 437 503 32,000  Level FlightAware ADS-B
Tue 05:17:48 PM 41.9489 -104.2660 257° West 438 504 32,000  Level FlightAware ADS-B
Tue 05:18:18 PM 41.9377 -104.3490 260° West 440 506 32,000  Level FlightAware ADS-B
Tue 05:18:50 PM 41.9278 -104.4320 261° West 440 506 32,000  Level FlightAware ADS-B
Tue 05:19:23 PM 41.9173 -104.5210 261° West 440 506 32,000  Level FlightAware ADS-B
Tue 05:19:53 PM 41.9075 -104.6020 261° West 440 506 32,000  Level FlightAware ADS-B
Tue 05:20:23 PM 41.8978 -104.6850 261° West 439 505 32,000  Level FlightAware ADS-B
Tue 05:20:53 PM 41.8880 -104.7660 261° West 437 503 32,000  Level FlightAware ADS-B
Tue 05:21:24 PM 41.8780 -104.8480 261° West 433 498 32,000  Level FlightAware ADS-B
Tue 05:21:55 PM 41.8681 -104.9270 260° West 432 497 32,000  Level FlightAware ADS-B
Tue 05:22:25 PM 41.8583 -105.0060 261° West 431 496 32,000  Level FlightAware ADS-B
Tue 05:22:56 PM 41.8481 -105.0880 261° West 433 498 32,000 190 Level FlightAware ADS-B
Tue 05:23:28 PM 41.8373 -105.1730 260° West 439 505 32,200 844 Climbing FlightAware ADS-B
Tue 05:24:00 PM 41.8266 -105.2590 261° West 440 506 32,900 1,355 Climbing FlightAware ADS-B
Tue 05:24:30 PM 41.8163 -105.3400 260° West 438 504 33,600 680 Climbing FlightAware ADS-B
Tue 05:25:37 PM 41.7950 -105.5050 260° West 439 505 34,000 245 Climbing FlightAware ADS-B
Tue 05:26:08 PM 41.7830 -105.5980 260° West 431 496 34,000  Level FlightAware ADS-B
Tue 05:26:52 PM 41.7690 -105.7060 260° West 430 495 34,000  Level FlightAware ADS-B
Tue 05:27:22 PM 41.7580 -105.7940 261° West 427 491 34,000  Level FlightAware ADS-B
Tue 05:28:02 PM 41.7440 -105.8980 260° West 430 495 34,000  Level FlightAware ADS-B
Tue 05:28:34 PM 41.7330 -105.9800 260° West 433 498 34,000  Level FlightAware ADS-B
Tue 05:29:10 PM 41.7200 -106.0770 260° West 431 496 34,000  Level FlightAware ADS-B
Tue 05:29:47 PM 41.7070 -106.1720 260° West 430 495 34,000  Level FlightAware ADS-B
Tue 05:30:16 PM 41.6970 -106.2500 260° West 432 497 34,000  Level FlightAware ADS-B
Tue 05:30:54 PM 41.6840 -106.3470 260° West 432 497 34,000  Level FlightAware ADS-B
Tue 05:31:40 PM 41.6680 -106.4570 259° West 432 497 34,000  Level FlightAware ADS-B
Tue 05:32:17 PM 41.6560 -106.5400 259° West 432 497 34,000  Level FlightAware ADS-B
Tue 05:32:53 PM 41.6440 -106.6200 259° West 432 497 34,000  Level FlightAware ADS-B
Tue 05:33:29 PM 41.6320 -106.7000 259° West 432 497 34,000  Level FlightAware ADS-B
Tue 05:34:05 PM 41.6210 -106.7810 260° West 432 497 34,000  Level FlightAware ADS-B
Tue 05:34:41 PM 41.6090 -106.8610 259° West 432 497 34,000  Level FlightAware ADS-B
Tue 05:35:17 PM 41.5970 -106.9410 259° West 432 497 34,000  Level FlightAware ADS-B
Tue 05:35:53 PM 41.5860 -107.0220 260° West 432 497 34,000  Level FlightAware ADS-B
Tue 05:36:29 PM 41.5740 -107.1020 259° West 432 497 34,000  Level FlightAware ADS-B
Tue 05:37:03 PM 41.5630 -107.1780 259° West 432 497 34,000  Level FlightAware ADS-B
Tue 05:37:39 PM 41.5510 -107.2580 259° West 432 497 34,000  Level FlightAware ADS-B
Tue 05:38:15 PM 41.5400 -107.3380 260° West 432 497 34,000  Level FlightAware ADS-B
Tue 05:38:52 PM 41.5280 -107.4200 259° West 432 497 34,000  Level FlightAware ADS-B
Tue 05:39:29 PM 41.5160 -107.5030 259° West 432 497 34,000  Level FlightAware ADS-B
Tue 05:40:03 PM 41.5050 -107.5790 259° West 432 497 34,000  Level FlightAware ADS-B
Tue 05:40:39 PM 41.4930 -107.6590 259° West 432 497 34,000  Level FlightAware ADS-B
Tue 05:41:14 PM 41.4558 -107.9550 259° West 428 493 34,000  Level Salt Lake Center
Tue 05:42:16 PM 41.4364 -108.1022 260° West 424 488 34,000  Level Salt Lake Center
Tue 05:42:59 PM 41.4211 -108.2258 261° West 425 489 34,000  Level Denver Center
Tue 05:44:01 PM 41.4011 -108.3719 260° West 422 486 34,000  Level Denver Center
Tue 05:45:03 PM 41.3775 -108.5433 260° West 421 484 34,000  Level Denver Center
Tue 05:46:05 PM 41.3572 -108.6892 260° West 419 482 34,000  Level Denver Center
Tue 05:47:07 PM 41.3331 -108.8611 259° West 421 484 34,000  Level Denver Center
Tue 05:48:09 PM 41.3108 -109.0111 259° West 427 491 34,000  Level Denver Center
Tue 05:49:11 PM 41.2892 -109.1639 259° West 430 495 34,000  Level Denver Center
Tue 05:50:13 PM 41.2647 -109.3383 259° West 427 491 34,000  Level Denver Center
Tue 05:51:35 PM 41.2361 -109.5344 259° West 421 484 34,000  Level Salt Lake Center
Tue 05:52:37 PM 41.2114 -109.7056 259° West 422 486 34,000  Level Salt Lake Center
Tue 05:53:39 PM 41.1894 -109.8519 259° West 422 486 34,000  Level Salt Lake Center
Tue 05:59:56 PM 41.0393 -110.8300 259° West 427 491 34,000  Level FlightAware ADS-B
Tue 06:00:26 PM 41.0271 -110.9070 258° West 427 491 34,000  Level FlightAware ADS-B
Tue 06:01:00 PM 41.0133 -110.9930 258° West 426 490 34,000  Level FlightAware ADS-B
Tue 06:01:37 PM 40.9980 -111.0900 258° West 425 489 34,000  Level FlightAware ADS-B
Tue 06:02:08 PM 40.9855 -111.1660 258° West 425 489 34,000  Level FlightAware ADS-B
Tue 06:02:44 PM 40.9709 -111.2580 258° West 426 490 34,000  Level FlightAware ADS-B
Tue 06:03:14 PM 40.9585 -111.3350 258° West 426 490 34,000  Level FlightAware ADS-B
Tue 06:03:46 PM 40.9450 -111.4160 258° West 428 493 34,000  Level FlightAware ADS-B
Tue 06:04:16 PM 40.9322 -111.4950 258° West 429 494 34,000  Level FlightAware ADS-B
Tue 06:04:50 PM 40.9179 -111.5800 257° West 431 496 34,000  Level FlightAware ADS-B
Tue 06:05:21 PM 40.9049 -111.6600 258° West 432 497 34,000  Level FlightAware ADS-B
Tue 06:05:51 PM 40.8920 -111.7370 258° West 431 496 34,000  Level FlightAware ADS-B
Tue 06:06:23 PM 40.8779 -111.8190 257° West 432 497 34,000  Level FlightAware ADS-B
Tue 06:06:55 PM 40.8642 -111.9020 258° West 433 498 34,000  Level FlightAware ADS-B
Tue 06:07:25 PM 40.8524 -111.9800 259° West 434 499 34,000  Level FlightAware ADS-B
Tue 06:07:43 PM 40.8485 -112.0270 264° West 434 499 34,000  Level FlightAware ADS-B
Tue 06:08:13 PM 40.8455 -112.1060 267° West 433 498 34,000  Level FlightAware ADS-B
Tue 06:08:44 PM 40.8428 -112.1880 268° West 433 498 34,000  Level FlightAware ADS-B
Tue 06:09:17 PM 40.8398 -112.2750 267° West 433 498 34,000  Level FlightAware ADS-B
Tue 06:09:48 PM 40.8368 -112.3570 267° West 434 499 34,000  Level FlightAware ADS-B
Tue 06:10:26 PM 40.8329 -112.4570 267° West 435 501 34,000  Level FlightAware ADS-B
Tue 06:10:57 PM 40.8296 -112.5390 267° West 434 499 34,000  Level FlightAware ADS-B
Tue 06:11:32 PM 40.8258 -112.6340 267° West 434 499 34,000  Level FlightAware ADS-B
Tue 06:12:06 PM 40.8221 -112.7220 267° West 435 501 34,000  Level FlightAware ADS-B
Tue 06:12:36 PM 40.8188 -112.8040 267° West 435 501 34,000  Level FlightAware ADS-B
Tue 06:13:07 PM 40.8154 -112.8830 267° West 435 501 34,000  Level FlightAware ADS-B
Tue 06:13:38 PM 40.8118 -112.9650 267° West 435 501 34,000  Level FlightAware ADS-B
Tue 06:14:09 PM 40.8081 -113.0470 267° West 436 502 34,000  Level FlightAware ADS-B
Tue 06:14:39 PM 40.8046 -113.1260 267° West 434 499 34,000  Level FlightAware ADS-B
Tue 06:15:24 PM 40.7992 -113.2450 267° West 433 498 34,000  Level FlightAware ADS-B
Tue 06:15:54 PM 40.7955 -113.3240 266° West 433 498 34,000  Level FlightAware ADS-B
Tue 06:16:32 PM 40.7908 -113.4270 267° West 433 498 34,000  Level FlightAware ADS-B
Tue 06:17:03 PM 40.7868 -113.5060 266° West 433 498 34,000  Level FlightAware ADS-B
Tue 06:17:36 PM 40.7826 -113.5920 266° West 433 498 34,000  Level FlightAware ADS-B
Tue 06:18:26 PM 40.7760 -113.7240 266° West 432 497 34,000  Level FlightAware ADS-B
Tue 06:19:00 PM 40.7715 -113.8130 266° West 431 496 34,000  Level FlightAware ADS-B
Tue 06:19:33 PM 40.7670 -113.9020 266° West 431 496 34,000  Level FlightAware ADS-B
Tue 06:20:08 PM 40.7623 -113.9910 266° West 431 496 34,000  Level FlightAware ADS-B
Tue 06:20:43 PM 40.7573 -114.0860 266° West 432 497 34,000  Level FlightAware ADS-B
Tue 06:21:19 PM 40.7522 -114.1770 266° West 433 498 34,000  Level FlightAware ADS-B
Tue 06:21:49 PM 40.7479 -114.2560 266° West 432 497 34,000  Level FlightAware ADS-B
Tue 06:22:23 PM 40.7428 -114.3480 266° West 436 502 34,000  Level FlightAware ADS-B
Tue 06:22:54 PM 40.7382 -114.4280 266° West 440 506 34,000  Level FlightAware ADS-B
Tue 06:24:08 PM 40.7269 -114.6260 266° West 439 505 34,000  Level FlightAware ADS-B
Tue 06:24:39 PM 40.7222 -114.7070 266° West 431 496 34,000  Level FlightAware ADS-B
Tue 06:25:10 PM 40.7174 -114.7860 265° West 435 501 34,000  Level FlightAware ADS-B
Tue 06:25:42 PM 40.7124 -114.8700 266° West 435 501 34,000  Level FlightAware ADS-B
Tue 06:26:14 PM 40.7072 -114.9550 265° West 434 499 34,000  Level FlightAware ADS-B
Tue 06:26:47 PM 40.7018 -115.0420 265° West 433 498 34,000  Level FlightAware ADS-B
Tue 06:27:23 PM 40.6959 -115.1360 265° West 433 498 34,000  Level FlightAware ADS-B
Tue 06:27:53 PM 40.6909 -115.2170 265° West 433 498 34,000  Level FlightAware ADS-B
Tue 06:31:15 PM 40.6555 -115.7510 265° West 437 503 34,000  Level FlightAware ADS-B
Tue 06:31:48 PM 40.6496 -115.8350 265° West 437 503 34,000 122 Level FlightAware ADS-B
Tue 06:32:53 PM 40.6353 -115.9981 265° West 437 503 34,200  Climbing Salt Lake Center
Tue 06:33:55 PM 40.6294 -116.1361 267° West 435 501 34,000 -97 Descending Salt Lake Center
Tue 06:34:57 PM 40.6144 -116.3281 264° West 438 504 34,000  Level Salt Lake Center
Tue 06:35:59 PM 40.6033 -116.4797 265° West 437 503 34,000  Level Salt Lake Center
Tue 06:37:01 PM 40.5922 -116.6311 265° West 436 502 34,000  Level Salt Lake Center
Tue 06:38:02 PM 40.5789 -116.8053 264° West 435 501 34,000  Level Salt Lake Center
Tue 06:39:04 PM 40.5506 -116.9764 258° West 437 503 34,000  Level Salt Lake Center
Tue 06:40:06 PM 40.5011 -117.1142 245° Southwest 442 509 34,000  Level Salt Lake Center
Tue 06:41:08 PM 40.4411 -117.2725 244° Southwest 439 505 34,000  Level Salt Lake Center
Tue 06:46:52 PM 40.1350 -118.0980 244° Southwest 436 502 34,000  Level FlightAware ADS-B
Tue 06:47:30 PM 40.1010 -118.1880 244° Southwest 439 505 34,000  Level FlightAware ADS-B
Tue 06:48:06 PM 40.0680 -118.2730 243° Southwest 439 505 34,000  Level FlightAware ADS-B
Tue 06:48:43 PM 40.0360 -118.3590 244° Southwest 438 504 34,000  Level FlightAware ADS-B
Tue 06:49:15 PM 40.0070 -118.4340 243° Southwest 438 504 34,000  Level FlightAware ADS-B
Tue 06:49:50 PM 39.9730 -118.5220 243° Southwest 438 504 34,000  Level FlightAware ADS-B
Tue 06:50:26 PM 39.9420 -118.6050 244° Southwest 438 504 34,000  Level FlightAware ADS-B
Tue 06:51:02 PM 39.9080 -118.6890 242° Southwest 436 502 34,000  Level FlightAware ADS-B
Tue 06:51:34 PM 39.8800 -118.7650 244° Southwest 437 503 34,000  Level FlightAware ADS-B
Tue 06:52:10 PM 39.8480 -118.8470 243° Southwest 436 502 34,000 -83 Level FlightAware ADS-B
Tue 06:52:46 PM 39.8150 -118.9340 244° Southwest 438 504 33,900 -529 Descending FlightAware ADS-B
Tue 06:53:18 PM 39.7850 -119.0090 243° Southwest 440 506 33,400 -1,200 Descending FlightAware ADS-B
Tue 06:53:56 PM 39.7500 -119.0990 243° Southwest 441 507 32,500 -1,417 Descending FlightAware ADS-B
Tue 06:54:30 PM 39.7190 -119.1800 244° Southwest 444 511 31,700 -1,457 Descending FlightAware ADS-B
Tue 06:55:06 PM 39.6840 -119.2680 243° Southwest 450 518 30,800 -1,417 Descending FlightAware ADS-B
Tue 06:55:42 PM 39.6510 -119.3530 243° Southwest 455 524 30,000 -706 Descending FlightAware ADS-B
Tue 06:56:14 PM 39.6200 -119.4310 243° Southwest 456 525 30,000  Level FlightAware ADS-B
Tue 06:56:52 PM 39.5830 -119.5240 243° Southwest 459 528 30,000 -333 Level FlightAware ADS-B
Tue 06:57:26 PM 39.5500 -119.6070 243° Southwest 463 533 29,600 -1,043 Descending FlightAware ADS-B
Tue 06:58:01 PM 39.5120 -119.6880 239° Southwest 465 535 28,800 -1,412 Descending FlightAware ADS-B
Tue 06:58:34 PM 39.4690 -119.7640 234° Southwest 467 537 28,000 -1,478 Descending FlightAware ADS-B
Tue 06:59:10 PM 39.4230 -119.8460 234° Southwest 469 540 27,100 -1,629 Descending FlightAware ADS-B
Tue 06:59:44 PM 39.3790 -119.9230 234° Southwest 457 526 26,100 -2,583 Descending FlightAware ADS-B
Tue 07:00:22 PM 39.3320 -120.0050 233° Southwest 445 512 24,000 -3,171 Descending FlightAware ADS-B
Tue 07:00:54 PM 39.2930 -120.0730 233° Southwest 433 498 22,400 -2,866 Descending FlightAware ADS-B
Tue 07:01:29 PM 39.2530 -120.1420 233° Southwest 421 484 20,800 -2,917 Descending FlightAware ADS-B
Tue 07:02:06 PM 39.2100 -120.2180 234° Southwest 410 472 18,900 -3,042 Descending FlightAware ADS-B
Tue 07:02:40 PM 39.1720 -120.2840 233° Southwest 403 464 17,200 -2,862 Descending FlightAware ADS-B
Tue 07:03:11 PM 39.1360 -120.3390 230° Southwest 388 447 15,800 -2,188 Descending FlightAware ADS-B
Tue 07:04:05 PM 39.0780 -120.4270 230° Southwest 379 436 14,100 -2,000 Descending FlightAware ADS-B
Tue 07:04:41 PM 39.0340 -120.4960 231° Southwest 374 430 12,800 -1,791 Descending FlightAware ADS-B
Tue 07:05:12 PM 39.0000 -120.5490 230° Southwest 365 420 12,100 -646 Descending FlightAware ADS-B
Tue 07:05:46 PM 38.9640 -120.6050 230° Southwest 367 422 12,100  Level FlightAware ADS-B
Tue 07:06:27 PM 38.9190 -120.6740 230° Southwest 338 389 12,100 -423 Level FlightAware ADS-B
Tue 07:06:57 PM 38.8890 -120.7190 229° Southwest 315 362 11,600 -1,543 Descending FlightAware ADS-B
Tue 07:07:37 PM 38.8520 -120.7790 232° Southwest 315 362 10,300 -1,745 Descending FlightAware ADS-B
Tue 07:07:52 PM 38.8390 -120.8010 233° Southwest 313 360 10,000 -769 Descending FlightAware ADS-B
Tue 07:08:16 PM 38.8190 -120.8360 234° Southwest 289 333 9,800 -667 Descending FlightAware ADS-B
Tue 07:08:37 PM 38.8030 -120.8640 234° Southwest 278 320 9,500 -1,171 Descending FlightAware ADS-B
Tue 07:08:57 PM 38.7870 -120.8920 234° Southwest 278 320 9,000 -1,950 Descending FlightAware ADS-B
Tue 07:09:17 PM 38.7720 -120.9190 235° Southwest 274 315 8,200 -2,348 Descending FlightAware ADS-B
Tue 07:09:43 PM 38.7530 -120.9530 234° Southwest 272 313 7,200 -2,348 Descending FlightAware ADS-B
Tue 07:10:03 PM 38.7380 -120.9790 234° Southwest 269 310 6,400 -2,100 Descending FlightAware ADS-B
Tue 07:10:23 PM 38.7230 -121.0040 232° Southwest 259 298 5,800 -2,000 Descending FlightAware ADS-B
Tue 07:10:33 PM 38.7160 -121.0170 235° Southwest 258 297 5,400 -2,400 Descending FlightAware ADS-B
Tue 07:10:58 PM 38.6980 -121.0460 232° Southwest 252 290 4,400 -2,267 Descending FlightAware ADS-B
Tue 07:11:18 PM 38.6830 -121.0720 234° Southwest 250 288 3,700 -1,571 Descending FlightAware ADS-B
Tue 07:11:40 PM 38.6700 -121.0930 232° Southwest 250 288 3,300 -1,135 Descending FlightAware ADS-B
Tue 07:11:55 PM 38.6620 -121.1070 234° Southwest 247 284 3,000 -615 Descending FlightAware ADS-B
Tue 07:12:19 PM 38.6420 -121.1430 235° Southwest 210 242 2,900 -143 Descending FlightAware ADS-B
Tue 07:12:37 PM 38.6330 -121.1590 234° Southwest 188 216 2,900 -769 Level FlightAware ADS-B
Tue 07:12:58 PM 38.6250 -121.1730 234° Southwest 186 214 2,400 -1,909 Descending FlightAware ADS-B
Tue 07:13:21 PM 38.6100 -121.1990 234° Southwest 183 211 1,500 -1,102 Descending FlightAware ADS-B
Tue 07:13:47 PM 38.5990 -121.2170 232° Southwest 183 211 1,500 -628 Level FlightAware ADS-B
Tue 07:14:47 PM 38.5786 -121.2556 232° Southwest 142 163 600 -645 Descending Oakland Center
Tue 07:15:48 PM 38.5569 -121.2947 235° Southwest 136 157 200 -393 Descending Oakland Center

Login

Don't have an account? Register now (free) for customized features, flight alerts, and more!